Bei Facebook empfehlenBei Twitter postenGoogle plusPinterest

Das Wetter im Erzgebirge am 07.08.2016

Wetter und Klima am 07.08.2016 Holzhau im Erzgebirge (630m ü.NN)
Letzte gemessene Temperatur und Uhrzeit der Messung23:45:00 Uhr11.50 °C
Temperatur (Maximum / Höchstwert) und Uhrzeit der Messung17:30:00 Uhr24.10 °C
Temperatur (Minimum / Tiefstwert) und Uhrzeit der Messung06:15:007.20 °C
Errechneter Absolutwert der Temperaturschwankungen zwischen Tmin und Tmax des Tages16.90 K
Errechnete Tagesmitteltemperatur15.33750 °C
Gesamt - Niederschlag des Tages (in flüssiger Form)0.00 Liter / m²
Luftdruck (Maximum / Höchstwert) und Zeitpunkt der Messung09:15:00 Uhr1024.70 hPa
Luftdruck (Minimum / Tiefstwert) und Zeitpunkt der Messung23:45:00 Uhr1020.70 hPa
Errechneter Absolutwert der Luftdruckschwankungen des Tages4.00 hPa
Höchste gemessene Windgeschwindigkeit und Uhrzeit der Messung23:45:00 Uhr0.00 km/h
Errechnete Windhäufigkeit in Relation zu den Messwerten des Tages0.00000 %
Niedrigste Windkühle (Windchill) und Zeitpunkt der Messung06:15:00 Uhr7.20 °C
Taupunkt (Maximum / Höchstwert) und Uhrzeit der Messung10:15:00 Uhr15.40 °C
Taupunkt (Minimum / Tiefstwert) und Uhrzeit der Messung06:15:006.10 °C
Anzahl der automatisch eingelesenen Messwerte 96

Detaillierte Wetter- und Klima- Messwerte für den 07.08.2016 in Holzhau im Erzgebirge (630m ü.NN)
ZeitTemperaturLuftdruckRel. LuftfeuchteWindWindrichtungWindchillTaupunktNiederschlag l/m²
23:45:0011.50 °C1020.70 hPa86.00 %9.20 °C 
23:30:0011.60 °C1020.70 hPa85.00 %9.20 °C 
23:15:0011.90 °C1020.70 hPa84.00 %9.30 °C 
23:00:0012.30 °C1020.80 hPa84.00 %9.70 °C 
22:45:0012.50 °C1020.90 hPa83.00 %9.70 °C 
22:30:0012.80 °C1021.10 hPa82.00 %9.80 °C 
22:15:0013.20 °C1021.20 hPa82.00 %10.20 °C 
22:00:0013.40 °C1021.10 hPa80.00 %10.00 °C 
21:45:0013.80 °C1021.30 hPa79.00 %10.20 °C 
21:30:0014.10 °C1021.30 hPa78.00 %10.30 °C 
21:15:0014.60 °C1021.30 hPa75.00 %10.20 °C 
21:00:0015.30 °C1021.30 hPa73.00 %10.50 °C 
20:45:0016.10 °C1021.30 hPa71.00 %10.80 °C 
20:30:0017.10 °C1021.30 hPa69.00 %11.40 °C 
20:15:0018.10 °C1021.40 hPa66.00 %11.70 °C 
20:00:0019.30 °C1021.40 hPa63.00 %12.10 °C 
19:45:0020.70 °C1021.40 hPa60.00 %12.70 °C 
19:30:0021.90 °C1021.40 hPa56.00 %12.70 °C 
19:15:0022.40 °C1021.50 hPa53.00 %12.40 °C 
19:00:0022.90 °C1021.60 hPa52.00 %12.50 °C 
18:45:0023.30 °C1021.60 hPa51.00 %12.60 °C 
18:30:0023.30 °C1021.70 hPa50.00 %12.30 °C 
18:15:0023.40 °C1022.00 hPa50.00 %12.40 °C 
18:00:0023.80 °C1022.00 hPa49.00 %12.40 °C 
17:45:0023.90 °C1022.20 hPa49.00 %12.50 °C 
17:30:0024.10 °C1022.20 hPa49.00 %12.70 °C 
17:15:0023.90 °C1022.40 hPa48.00 %12.20 °C 
17:00:0023.90 °C1022.40 hPa47.00 %11.90 °C 
16:45:0024.00 °C1022.40 hPa49.00 %12.60 °C 
16:30:0023.90 °C1022.50 hPa50.00 %12.80 °C 
16:15:0023.80 °C1022.50 hPa51.00 %13.10 °C 
16:00:0023.80 °C1022.40 hPa50.00 %12.80 °C 
15:45:0023.60 °C1022.50 hPa51.00 %12.90 °C 
15:30:0023.50 °C1022.60 hPa52.00 %13.10 °C 
15:15:0023.30 °C1022.90 hPa52.00 %12.90 °C 
15:00:0023.10 °C1023.00 hPa53.00 %13.00 °C 
14:45:0022.90 °C1022.90 hPa55.00 %13.40 °C 
14:30:0022.50 °C1023.00 hPa55.00 %13.00 °C 
14:15:0022.30 °C1023.20 hPa55.00 %12.80 °C 
14:00:0022.00 °C1023.40 hPa57.00 %13.10 °C 
13:45:0021.80 °C1023.60 hPa60.00 %13.70 °C 
13:30:0021.50 °C1023.40 hPa60.00 %13.40 °C 
13:15:0021.30 °C1023.70 hPa61.00 %13.50 °C 
13:00:0021.00 °C1023.90 hPa62.00 %13.40 °C 
12:45:0020.70 °C1024.00 hPa64.00 %13.60 °C 
12:30:0020.80 °C1024.10 hPa66.00 %14.20 °C 
12:15:0020.10 °C1024.10 hPa69.00 %14.20 °C 
12:00:0019.50 °C1024.10 hPa69.00 %13.70 °C 
11:45:0019.40 °C1024.30 hPa72.00 %14.20 °C 
11:30:0019.40 °C1024.20 hPa72.00 %14.20 °C 
11:15:0019.90 °C1024.40 hPa73.00 %14.90 °C 
11:00:0019.40 °C1024.50 hPa75.00 %14.90 °C 
10:45:0019.10 °C1024.30 hPa78.00 %15.20 °C 
10:30:0018.60 °C1024.50 hPa81.00 %15.30 °C 
10:15:0018.50 °C1024.40 hPa82.00 %15.40 °C 
10:00:0017.30 °C1024.50 hPa86.00 %14.90 °C 
09:45:0016.80 °C1024.60 hPa89.00 %15.00 °C 
09:30:0015.60 °C1024.50 hPa92.00 %14.30 °C 
09:15:0014.90 °C1024.70 hPa93.00 %13.80 °C 
09:00:0014.60 °C1024.50 hPa94.00 %13.60 °C 
08:45:0013.80 °C1024.40 hPa94.00 %12.90 °C 
08:30:0012.90 °C1024.20 hPa94.00 %12.00 °C 
08:15:0011.90 °C1024.30 hPa94.00 %11.00 °C 
08:00:0011.20 °C1024.20 hPa94.00 %10.30 °C 
07:45:0010.40 °C1024.20 hPa94.00 %9.50 °C 
07:30:009.50 °C1024.10 hPa94.00 %8.60 °C 
07:15:008.60 °C1024.20 hPa94.00 %7.70 °C 
07:00:007.90 °C1024.10 hPa94.00 %7.00 °C 
06:45:007.60 °C1024.00 hPa93.00 %6.50 °C 
06:30:007.30 °C1024.00 hPa93.00 %6.20 °C 
06:15:007.20 °C1024.10 hPa93.00 %6.10 °C 
06:00:007.30 °C1024.00 hPa93.00 %6.20 °C 
05:45:007.30 °C1023.90 hPa93.00 %6.20 °C 
05:30:007.60 °C1023.90 hPa93.00 %6.50 °C 
05:15:007.70 °C1023.80 hPa93.00 %6.60 °C 
05:00:007.60 °C1023.70 hPa93.00 %6.50 °C 
04:45:007.40 °C1023.70 hPa92.00 %6.20 °C 
04:30:007.30 °C1023.60 hPa92.00 %6.10 °C 
04:15:007.40 °C1023.60 hPa92.00 %6.20 °C 
04:00:007.50 °C1023.80 hPa92.00 %6.30 °C 
03:45:007.80 °C1023.70 hPa92.00 %6.60 °C 
03:30:008.30 °C1023.80 hPa92.00 %7.10 °C 
03:15:008.50 °C1023.80 hPa92.00 %7.30 °C 
03:00:008.40 °C1023.80 hPa92.00 %7.20 °C 
02:45:008.20 °C1023.80 hPa91.00 %6.80 °C 
02:30:008.10 °C1023.80 hPa91.00 %6.70 °C 
02:15:008.30 °C1023.80 hPa91.00 %6.90 °C 
02:00:008.30 °C1023.90 hPa91.00 %6.90 °C 
01:45:007.90 °C1023.90 hPa91.00 %6.50 °C 
01:30:007.90 °C1023.80 hPa90.00 %6.40 °C 
01:15:008.20 °C1024.00 hPa90.00 %6.70 °C 
01:00:008.40 °C1023.90 hPa89.00 %6.70 °C 
00:45:008.40 °C1024.00 hPa89.00 %6.70 °C 
00:30:008.60 °C1023.80 hPa89.00 %6.90 °C 
00:15:008.80 °C1023.80 hPa88.00 %6.90 °C 
00:00:008.90 °C1023.90 hPa88.00 %7.00 °C 

Permanenter Link zu dieser Seite: Wetter im Erzgebirge am 07.08.2016
Performance-Info: Die Erstellung der Seite / Statistik(en) / Tabelle(n) erforderte 5 Datenbankserver-Abfrage(n) und dauerte 97 Millisekunden. (Dieser Messwert ist von der Gesamt-Auslastung des Servers abhängig.)
Erzgebirge - Wetter | Erzgebirge - Wetter (Mobilgeräte) | Komplette Klimadatenbank